Time;durP1;ratioP1;P1;durP2;ratioP2;P2;SDS_P1;SDS_P2;PMS_P1;PMS_P2;Temp;Humidity;BMP_temperature;BMP_pressure;BME280_temperature;BME280_humidity;BME280_pressure;Samples;Min_cycle;Max_cycle;Signal;HPM_P1;HPM_P2
2023/05/14 00:01:42;;;;;;;4.00;3.60;;;;;;;16.11;60.03;100304.09;10191802;28;20051;-63
2023/05/14 00:06:44;;;;;;;4.47;4.15;;;;;;;15.96;60.61;100289.56;10187724;28;20062;-66
2023/05/14 00:11:46;;;;;;;4.68;4.18;;;;;;;15.92;60.63;100286.34;10191815;28;20051;-66
2023/05/14 00:16:48;;;;;;;3.70;3.22;;;;;;;15.96;61.02;100292.25;10188988;28;20063;-67
2023/05/14 00:21:49;;;;;;;3.80;3.50;;;;;;;15.93;60.40;100293.41;10195298;28;20220;-66
2023/05/14 00:26:51;;;;;;;7.10;3.97;;;;;;;15.77;60.91;100272.63;10195621;28;20106;-67
2023/05/14 00:31:52;;;;;;;4.15;3.65;;;;;;;15.73;61.63;100276.63;10195836;28;20736;-67
2023/05/14 00:36:53;;;;;;;5.30;4.30;;;;;;;15.63;61.93;100263.31;10194745;28;20059;-67
2023/05/14 00:41:55;;;;;;;6.60;4.78;;;;;;;15.57;62.29;100272.00;10194737;28;20046;-67
2023/05/14 00:46:57;;;;;;;4.65;4.18;;;;;;;15.50;62.71;100260.19;10200551;28;20293;-66
2023/05/14 00:51:59;;;;;;;4.22;3.88;;;;;;;15.42;62.83;100257.44;10228763;28;20321;-65
2023/05/14 00:57:01;;;;;;;4.65;4.15;;;;;;;15.45;63.01;100271.38;10195300;28;20054;-66
2023/05/14 01:02:02;;;;;;;7.25;4.32;;;;;;;15.28;63.33;100253.47;10192791;28;20393;-66
2023/05/14 01:07:22;;;;;;;4.80;4.32;;;;;;;15.37;63.75;100266.81;10191347;28;20059;-66
2023/05/14 01:12:35;;;;;;;5.18;3.92;;;;;;;15.26;64.02;100263.50;10197293;28;20047;-65
2023/05/14 01:17:42;;;;;;;5.43;3.83;;;;;;;15.28;64.02;100258.81;10195100;28;20048;-66
2023/05/14 01:22:43;;;;;;;4.05;3.75;;;;;;;15.26;64.22;100260.84;10195636;28;20162;-65
2023/05/14 01:28:03;;;;;;;5.00;4.50;;;;;;;15.09;64.34;100241.06;10191439;28;20059;-67
2023/05/14 01:33:08;;;;;;;5.32;4.82;;;;;;;15.04;64.84;100249.56;10220900;28;20251;-66
2023/05/14 01:38:12;;;;;;;4.68;4.30;;;;;;;15.04;65.43;100265.63;10204642;28;20644;-66
2023/05/14 01:43:14;;;;;;;5.00;4.50;;;;;;;15.00;65.43;100264.28;10193040;28;20054;-66
2023/05/14 01:48:16;;;;;;;4.88;4.47;;;;;;;14.91;65.62;100259.84;10195270;28;20073;-67
2023/05/14 01:53:17;;;;;;;4.95;4.55;;;;;;;14.81;65.53;100244.63;10192455;28;20043;-66
2023/05/14 01:58:19;;;;;;;4.93;4.55;;;;;;;14.84;65.52;100248.84;10193895;28;20357;-66
2023/05/14 02:03:20;;;;;;;5.85;4.38;;;;;;;14.86;65.63;100254.91;10194606;28;20166;-66
2023/05/14 02:08:21;;;;;;;6.47;4.78;;;;;;;14.74;65.25;100232.00;10220183;28;20158;-65
2023/05/14 02:13:24;;;;;;;5.30;4.80;;;;;;;14.79;65.52;100249.31;10193840;28;20054;-66
2023/05/14 02:18:25;;;;;;;4.95;4.55;;;;;;;14.78;65.33;100255.66;10194467;28;20338;-66
2023/05/14 02:23:27;;;;;;;5.75;5.25;;;;;;;14.67;65.28;100237.13;10191791;28;20055;-67
2023/05/14 02:28:41;;;;;;;;;;;;;;;14.65;65.62;100247.13;10203073;28;20150;-67
2023/05/14 02:33:42;;;;;;;5.50;5.10;;;;;;;14.59;65.87;100237.00;10197316;28;19922;-67
2023/05/14 02:38:44;;;;;;;6.28;5.35;;;;;;;14.58;65.71;100238.00;10195126;28;20130;-67
2023/05/14 02:43:45;;;;;;;5.68;5.05;;;;;;;14.55;65.85;100241.81;10189154;28;20539;-66
2023/05/14 02:48:47;;;;;;;5.88;5.38;;;;;;;14.39;65.82;100222.88;10224647;28;21123;-66
2023/05/14 02:53:48;;;;;;;6.00;5.40;;;;;;;14.36;65.95;100228.53;10193892;28;20155;-66
2023/05/14 02:58:49;;;;;;;6.10;5.57;;;;;;;14.26;66.19;100229.44;10190489;28;20126;-66
2023/05/14 03:03:51;;;;;;;7.20;5.30;;;;;;;14.34;66.20;100234.03;10193364;28;20343;-66
2023/05/14 03:08:52;;;;;;;6.10;5.50;;;;;;;14.26;66.17;100228.56;10210845;28;20051;-66
2023/05/14 03:13:54;;;;;;;5.00;4.60;;;;;;;14.15;66.31;100225.09;10205158;28;20047;-66
2023/05/14 03:18:55;;;;;;;5.25;4.75;;;;;;;14.13;66.26;100224.41;10191342;28;20521;-65
2023/05/14 03:23:56;;;;;;;5.10;4.57;;;;;;;14.12;66.50;100219.19;10192297;28;20270;-66
2023/05/14 03:28:58;;;;;;;5.80;5.25;;;;;;;14.10;66.02;100213.97;10187138;28;20472;-66
2023/05/14 03:33:59;;;;;;;5.40;4.82;;;;;;;14.18;66.46;100236.50;10190249;28;20521;-66
2023/05/14 03:39:01;;;;;;;5.60;5.10;;;;;;;14.05;66.01;100213.59;10191295;28;20455;-69
2023/05/14 03:44:05;;;;;;;5.38;4.88;;;;;;;14.00;66.74;100204.31;10190400;28;20050;-66
2023/05/14 03:49:07;;;;;;;5.53;4.73;;;;;;;14.08;66.35;100224.00;10192077;28;20299;-67
2023/05/14 03:54:08;;;;;;;5.60;5.10;;;;;;;14.02;66.30;100213.91;10208072;28;20047;-65
2023/05/14 03:59:10;;;;;;;5.22;4.82;;;;;;;13.99;66.45;100222.22;10226573;28;20043;-66
2023/05/14 04:04:11;;;;;;;5.25;4.85;;;;;;;14.00;66.31;100218.53;10225751;28;20059;-67
2023/05/14 04:09:13;;;;;;;5.95;5.28;;;;;;;14.00;66.81;100231.91;10193931;28;20533;-67
2023/05/14 04:14:14;;;;;;;5.60;5.10;;;;;;;13.94;66.95;100232.50;10198863;28;20507;-66
2023/05/14 04:19:15;;;;;;;5.57;5.18;;;;;;;13.92;67.16;100226.47;10198408;28;20055;-65
2023/05/14 04:24:17;;;;;;;5.72;5.22;;;;;;;13.95;67.30;100234.19;10196664;28;20121;-68
2023/05/14 04:29:18;;;;;;;5.60;5.07;;;;;;;13.85;67.02;100220.00;10227841;28;20323;-65
2023/05/14 04:34:19;;;;;;;8.95;5.68;;;;;;;13.95;66.99;100236.88;10200748;28;20061;-66
2023/05/14 04:39:21;;;;;;;4.72;4.32;;;;;;;13.89;66.93;100229.44;10194585;28;20098;-66
2023/05/14 04:44:22;;;;;;;4.75;4.35;;;;;;;13.93;66.75;100233.47;10197367;28;20078;-66
2023/05/14 04:49:24;;;;;;;5.65;5.10;;;;;;;13.92;66.61;100234.50;10195508;28;20063;-66
2023/05/14 04:54:25;;;;;;;5.15;4.65;;;;;;;13.94;66.76;100233.31;10192523;28;20062;-66
2023/05/14 04:59:26;;;;;;;5.25;4.75;;;;;;;13.96;66.80;100249.25;10197001;28;20043;-66
2023/05/14 05:04:28;;;;;;;5.85;5.25;;;;;;;14.02;66.17;100231.75;10198288;28;20443;-66
2023/05/14 05:09:29;;;;;;;5.55;5.05;;;;;;;13.99;66.63;100238.28;10192036;28;20059;-66
2023/05/14 05:14:31;;;;;;;5.63;5.13;;;;;;;14.03;66.54;100250.34;10194478;28;20079;-66
2023/05/14 05:19:32;;;;;;;6.00;5.40;;;;;;;13.99;66.54;100243.63;10196836;28;20051;-66
2023/05/14 05:24:44;;;;;;;5.75;5.28;;;;;;;14.05;66.71;100251.06;10201988;28;20058;-67
2023/05/14 05:29:45;;;;;;;5.85;4.93;;;;;;;13.95;66.84;100231.53;10195067;28;20063;-67
2023/05/14 05:34:47;;;;;;;5.28;4.70;;;;;;;14.19;66.53;100254.25;10190758;28;20568;-67
2023/05/14 05:39:48;;;;;;;5.30;4.82;;;;;;;14.17;66.34;100248.19;10185300;28;20513;-68
2023/05/14 05:44:49;;;;;;;5.30;4.90;;;;;;;14.23;66.48;100242.25;10192869;28;20065;-67
2023/05/14 05:49:50;;;;;;;4.45;4.05;;;;;;;14.44;65.80;100252.72;10190147;28;20058;-67
2023/05/14 05:54:52;;;;;;;5.07;4.68;;;;;;;14.56;65.32;100248.00;10195686;28;20521;-68
2023/05/14 05:59:53;;;;;;;5.55;5.05;;;;;;;14.74;64.76;100253.44;10190997;28;20063;-70
2023/05/14 06:04:54;;;;;;;5.35;4.90;;;;;;;14.78;64.63;100239.56;10189896;28;20066;-71
2023/05/14 06:09:56;;;;;;;4.60;4.18;;;;;;;14.76;64.86;100254.16;10191980;28;20146;-68
2023/05/14 06:14:57;;;;;;;5.22;4.72;;;;;;;14.90;65.40;100263.50;10191374;28;20371;-69
2023/05/14 06:19:59;;;;;;;4.10;3.80;;;;;;;14.85;64.07;100246.03;10217449;28;20573;-68
2023/05/14 06:25:00;;;;;;;3.92;3.63;;;;;;;14.86;64.11;100241.50;10196110;28;20078;-67
2023/05/14 06:30:02;;;;;;;5.25;4.40;;;;;;;15.02;63.75;100240.84;10185762;28;20059;-68
2023/05/14 06:35:04;;;;;;;4.10;3.80;;;;;;;15.29;63.41;100247.94;10218806;28;20835;-66
2023/05/14 06:40:06;;;;;;;3.88;3.58;;;;;;;15.37;63.20;100234.63;10183622;28;20055;-67
2023/05/14 06:45:07;;;;;;;3.35;3.08;;;;;;;15.62;62.96;100240.16;10186442;28;20059;-67
2023/05/14 06:50:09;;;;;;;3.95;3.55;;;;;;;15.71;62.55;100241.06;10186241;28;20399;-73
2023/05/14 06:55:11;;;;;;;4.03;3.60;;;;;;;15.77;62.10;100235.06;10187528;28;21465;-71
2023/05/14 07:00:13;;;;;;;3.80;3.50;;;;;;;15.93;61.51;100247.78;10189821;28;20063;-67
2023/05/14 07:05:15;;;;;;;3.75;3.45;;;;;;;15.94;61.30;100235.19;10189094;28;20858;-71
2023/05/14 07:10:16;;;;;;;4.10;3.80;;;;;;;16.05;61.32;100234.94;10186369;28;20054;-69
2023/05/14 07:15:18;;;;;;;4.32;4.03;;;;;;;16.20;61.16;100225.28;10184191;28;20066;-69
2023/05/14 07:20:19;;;;;;;6.18;3.38;;;;;;;16.33;60.87;100216.75;10184523;28;20415;-71
2023/05/14 07:25:20;;;;;;;4.80;3.50;;;;;;;16.62;60.58;100223.59;10186235;28;20199;-68
2023/05/14 07:30:22;;;;;;;4.45;4.05;;;;;;;16.32;59.69;100187.38;10190492;28;20043;-68
2023/05/14 07:35:23;;;;;;;4.07;3.67;;;;;;;16.56;60.29;100208.94;10194675;28;20509;-68
2023/05/14 07:40:25;;;;;;;3.97;3.33;;;;;;;16.90;60.07;100207.19;10194536;28;20262;-69
2023/05/14 07:45:27;;;;;;;5.00;3.28;;;;;;;17.09;59.85;100212.25;10223432;28;20118;-69
2023/05/14 07:50:29;;;;;;;3.50;3.20;;;;;;;17.15;59.55;100208.06;10192047;28;20477;-68
2023/05/14 07:55:30;;;;;;;5.07;3.55;;;;;;;17.31;58.96;100207.25;10191014;28;20063;-68
2023/05/14 08:00:32;;;;;;;4.60;4.00;;;;;;;17.47;59.18;100204.53;10189666;28;20673;-68
2023/05/14 08:05:33;;;;;;;3.63;3.33;;;;;;;17.69;58.49;100195.94;10193927;28;20066;-69
2023/05/14 08:10:35;;;;;;;3.58;3.13;;;;;;;17.71;57.31;100177.75;10211398;28;20078;-70
2023/05/14 08:15:36;;;;;;;3.42;3.13;;;;;;;17.95;56.98;100193.84;10186941;28;20067;-69
2023/05/14 08:20:38;;;;;;;3.15;2.88;;;;;;;18.28;56.39;100192.91;10217077;28;20059;-70
2023/05/14 08:25:39;;;;;;;2.50;2.30;;;;;;;18.32;55.87;100184.28;10219489;28;20093;-68
2023/05/14 08:30:40;;;;;;;3.63;2.88;;;;;;;18.59;54.15;100179.44;10186481;28;20051;-69
2023/05/14 08:35:41;;;;;;;3.40;2.83;;;;;;;18.66;51.25;100161.53;10185761;28;20062;-70
2023/05/14 08:40:56;;;;;;;3.25;2.45;;;;;;;18.96;52.61;100153.59;10174036;28;20089;-68
2023/05/14 08:46:00;;;;;;;2.30;2.10;;;;;;;19.11;51.88;100171.69;10187010;28;20063;-68
2023/05/14 08:51:02;;;;;;;2.78;2.53;;;;;;;19.22;52.13;100158.59;10190382;28;20051;-67
2023/05/14 08:56:04;;;;;;;2.88;2.67;;;;;;;19.18;51.84;100156.44;10187691;28;20062;-68
2023/05/14 09:01:06;;;;;;;3.03;2.70;;;;;;;19.11;51.60;100156.34;10188037;28;20059;-68
2023/05/14 09:06:08;;;;;;;2.75;2.55;;;;;;;18.84;51.56;100136.13;10186337;28;20250;-68
2023/05/14 09:11:09;;;;;;;2.72;1.98;;;;;;;18.93;50.07;100158.50;10187599;28;20054;-68
2023/05/14 09:16:11;;;;;;;2.55;2.15;;;;;;;18.97;50.87;100149.88;10184829;28;20050;-68
2023/05/14 09:21:22;;;;;;;2.50;2.20;;;;;;;18.94;50.04;100142.13;10216808;28;20082;-70
2023/05/14 09:26:27;;;;;;;3.25;2.95;;;;;;;18.86;50.74;100137.66;10192806;28;20142;-70
2023/05/14 09:31:30;;;;;;;6.78;4.07;;;;;;;18.71;52.24;100144.81;10196822;28;20111;-69
2023/05/14 09:36:33;;;;;;;3.08;2.70;;;;;;;18.73;50.62;100137.38;10191252;28;20106;-68
2023/05/14 09:41:34;;;;;;;3.22;2.80;;;;;;;18.86;51.53;100134.13;10184964;28;20055;-68
2023/05/14 09:46:36;;;;;;;2.78;2.50;;;;;;;18.92;50.60;100136.09;10196679;28;20059;-68
2023/05/14 09:51:38;;;;;;;3.58;1.83;;;;;;;18.86;50.66;100147.59;10189432;28;20797;-68
2023/05/14 09:56:39;;;;;;;2.60;1.67;;;;;;;18.79;48.12;100138.53;10192133;28;20053;-68
2023/05/14 10:01:41;;;;;;;1.92;1.73;;;;;;;18.87;48.68;100136.63;10233121;28;20066;-68
2023/05/14 10:06:50;;;;;;;2.22;2.03;;;;;;;19.14;47.69;100128.16;10188682;28;20138;-69
2023/05/14 10:11:56;;;;;;;2.88;2.33;;;;;;;19.27;47.73;100139.16;10198471;28;20082;-69
2023/05/14 10:16:59;;;;;;;2.75;1.80;;;;;;;19.28;46.84;100131.91;10187439;28;20121;-69
2023/05/14 10:22:06;;;;;;;2.67;1.45;;;;;;;19.36;46.59;100132.66;10189244;28;20059;-70
2023/05/14 10:27:08;;;;;;;1.75;1.52;;;;;;;19.53;46.48;100124.38;10203364;28;20106;-68
2023/05/14 10:32:11;;;;;;;2.65;2.13;;;;;;;19.72;46.56;100114.91;10186527;28;20570;-67
2023/05/14 10:37:19;;;;;;;2.25;1.73;;;;;;;19.80;45.67;100136.44;10171313;28;20077;-68
2023/05/14 10:42:47;;;;;;;2.13;1.38;;;;;;;19.91;46.16;100127.03;10189204;28;20051;-69
2023/05/14 10:47:49;;;;;;;1.75;1.50;;;;;;;19.82;46.15;100103.84;10179333;28;20520;-69
2023/05/14 10:52:51;;;;;;;2.00;1.80;;;;;;;20.10;45.99;100115.66;10186421;28;20090;-68
2023/05/14 10:57:53;;;;;;;2.22;1.70;;;;;;;20.43;45.90;100079.19;10197610;28;20185;-68
2023/05/14 11:02:56;;;;;;;2.22;1.52;;;;;;;20.69;44.86;100089.47;10188303;28;20055;-68
2023/05/14 11:07:58;;;;;;;1.85;1.70;;;;;;;20.70;45.98;100091.13;10188217;28;20043;-67
2023/05/14 11:13:01;;;;;;;2.55;2.35;;;;;;;20.59;46.13;100088.94;10183351;28;20097;-67
2023/05/14 11:18:03;;;;;;;2.17;1.90;;;;;;;20.25;47.15;100095.84;10185092;28;20054;-69
2023/05/14 11:23:05;;;;;;;3.92;2.13;;;;;;;20.02;47.34;100094.13;10184135;28;20070;-69
2023/05/14 11:28:06;;;;;;;2.47;2.15;;;;;;;19.86;47.41;100078.13;10182644;28;21744;-70
2023/05/14 11:33:08;;;;;;;1.90;1.70;;;;;;;20.35;47.26;100082.84;10181831;28;20055;-68
2023/05/14 11:38:16;;;;;;;4.05;2.10;;;;;;;20.24;46.43;100081.50;10192985;28;20051;-70
2023/05/14 11:43:18;;;;;;;1.80;1.67;;;;;;;19.91;47.35;100067.63;10210140;28;20660;-69
2023/05/14 11:48:21;;;;;;;1.80;1.70;;;;;;;20.19;45.65;100056.06;10198134;28;20444;-70
2023/05/14 11:53:27;;;;;;;1.67;1.47;;;;;;;20.32;45.63;100056.22;10179150;28;20059;-70
2023/05/14 11:58:32;;;;;;;1.73;1.63;;;;;;;20.27;46.64;100042.44;10180206;28;20130;-70
2023/05/14 12:03:34;;;;;;;1.70;1.60;;;;;;;20.41;46.77;100051.53;10180160;28;20130;-69
2023/05/14 12:08:36;;;;;;;1.50;1.40;;;;;;;20.53;43.31;100046.44;10182290;28;20054;-67
2023/05/14 12:13:38;;;;;;;1.60;1.50;;;;;;;20.39;42.77;100034.69;10182892;28;20501;-69
2023/05/14 12:18:39;;;;;;;1.80;1.58;;;;;;;20.57;42.84;100032.34;10199386;28;20061;-68
2023/05/14 12:23:41;;;;;;;2.83;1.60;;;;;;;20.90;42.55;100020.16;10196333;28;20316;-69
2023/05/14 12:28:46;;;;;;;2.03;1.83;;;;;;;21.37;41.89;100026.69;10187257;28;20235;-73
2023/05/14 12:33:48;;;;;;;3.63;2.60;;;;;;;21.48;40.85;100012.59;10188678;28;20599;-70
2023/05/14 12:38:50;;;;;;;3.42;3.13;;;;;;;21.56;42.00;100008.06;10189297;28;20090;-68
2023/05/14 12:43:51;;;;;;;2.30;1.75;;;;;;;21.89;41.16;100013.63;10185953;28;20085;-68
2023/05/14 12:48:53;;;;;;;1.33;1.23;;;;;;;21.95;41.54;99996.56;10178036;28;20063;-68
2023/05/14 12:53:54;;;;;;;1.35;1.25;;;;;;;21.92;39.24;99987.97;10189645;28;20731;-70
2023/05/14 12:58:56;;;;;;;1.15;1.00;;;;;;;21.97;40.77;99974.66;10186384;28;20047;-68
2023/05/14 13:03:58;;;;;;;2.28;1.60;;;;;;;21.96;39.92;99973.81;10181968;28;20064;-68
2023/05/14 13:09:01;;;;;;;1.48;1.35;;;;;;;21.69;39.38;99927.72;10184124;28;20129;-68
2023/05/14 13:14:02;;;;;;;1.73;1.42;;;;;;;21.96;39.60;99959.44;10185987;28;20093;-69
2023/05/14 13:19:04;;;;;;;1.40;1.20;;;;;;;21.86;39.29;99946.31;10185028;28;20086;-69
2023/05/14 13:24:05;;;;;;;1.20;1.10;;;;;;;21.72;39.71;99915.63;10186530;28;20052;-70
2023/05/14 13:29:07;;;;;;;3.03;1.58;;;;;;;21.81;40.03;99933.38;10185102;28;20820;-68
2023/05/14 13:34:09;;;;;;;2.53;2.30;;;;;;;21.84;39.77;99951.06;10183702;28;20055;-69
2023/05/14 13:39:10;;;;;;;3.58;1.08;;;;;;;21.51;39.20;99925.59;10209257;28;20078;-68
2023/05/14 13:44:14;;;;;;;2.35;0.90;;;;;;;21.49;40.53;99922.19;10184807;28;20433;-70
2023/05/14 13:49:15;;;;;;;1.42;1.13;;;;;;;21.65;40.15;99928.34;10195834;28;20181;-69
2023/05/14 13:54:17;;;;;;;2.35;1.00;;;;;;;21.75;39.27;99920.63;10184292;28;20059;-69
2023/05/14 13:59:19;;;;;;;2.03;1.13;;;;;;;21.64;39.00;99903.09;10190990;28;20954;-68
2023/05/14 14:04:21;;;;;;;0.95;0.95;;;;;;;21.73;38.82;99903.75;10186757;28;20050;-68
2023/05/14 14:09:23;;;;;;;2.80;1.77;;;;;;;21.80;39.24;99910.03;10195138;28;20177;-68
2023/05/14 14:14:24;;;;;;;2.40;1.63;;;;;;;21.66;39.57;99883.94;10232220;28;20811;-69
2023/05/14 14:19:25;;;;;;;2.58;1.70;;;;;;;21.67;39.74;99893.75;10208367;28;20572;-68
2023/05/14 14:24:27;;;;;;;1.20;1.00;;;;;;;21.56;39.30;99867.25;10186516;28;21053;-69
2023/05/14 14:29:29;;;;;;;1.70;1.45;;;;;;;21.71;40.08;99884.19;10188347;28;20131;-69
2023/05/14 14:34:31;;;;;;;2.37;1.20;;;;;;;21.63;39.66;99878.94;10219046;28;20119;-70
2023/05/14 14:39:32;;;;;;;1.38;1.13;;;;;;;21.54;40.01;99854.78;10201264;28;20067;-68
2023/05/14 14:44:34;;;;;;;1.35;1.10;;;;;;;21.58;39.32;99868.72;10189821;28;20514;-68
2023/05/14 14:49:35;;;;;;;1.65;1.00;;;;;;;21.52;39.12;99851.41;10215689;28;20061;-68
2023/05/14 14:54:37;;;;;;;1.48;1.20;;;;;;;21.53;39.68;99858.50;10189670;28;20062;-67
2023/05/14 14:59:38;;;;;;;1.00;0.90;;;;;;;21.50;39.31;99858.09;10186317;28;20061;-68
2023/05/14 15:04:39;;;;;;;0.90;0.85;;;;;;;21.43;39.32;99840.97;10188221;28;20130;-66
2023/05/14 15:09:41;;;;;;;0.98;0.75;;;;;;;21.30;40.02;99831.78;10189322;28;20047;-69
2023/05/14 15:14:42;;;;;;;1.63;1.05;;;;;;;21.29;39.97;99829.28;10187348;28;20071;-69
2023/05/14 15:19:44;;;;;;;1.27;1.08;;;;;;;21.32;40.63;99839.69;10182043;28;20077;-69
2023/05/14 15:24:46;;;;;;;2.70;1.20;;;;;;;21.41;41.30;99843.88;10196199;28;20047;-69
2023/05/14 15:29:47;;;;;;;15.82;14.40;;;;;;;21.35;40.59;99833.88;10183330;28;20047;-68
2023/05/14 15:34:48;;;;;;;2.85;2.17;;;;;;;21.27;42.84;99843.00;10187386;28;20689;-69
2023/05/14 15:39:50;;;;;;;4.38;2.95;;;;;;;21.03;44.22;99838.94;10180006;28;20140;-68
2023/05/14 15:44:51;;;;;;;4.20;3.08;;;;;;;20.96;45.36;99867.88;10184161;28;20490;-69
2023/05/14 15:49:53;;;;;;;3.88;2.20;;;;;;;20.86;47.07;99870.94;10186356;28;20058;-68
2023/05/14 15:54:56;;;;;;;3.65;2.10;;;;;;;20.71;51.84;99868.34;10196005;28;20296;-69
2023/05/14 15:59:57;;;;;;;2.10;1.90;;;;;;;20.58;54.02;99862.81;10194556;28;20051;-67
2023/05/14 16:04:58;;;;;;;1.95;1.60;;;;;;;20.50;52.72;99866.53;10198270;28;20506;-67
2023/05/14 16:10:00;;;;;;;3.08;1.63;;;;;;;20.28;52.49;99857.63;10193909;28;20061;-68
2023/05/14 16:15:02;;;;;;;2.30;1.27;;;;;;;20.19;53.15;99865.06;10211171;28;20055;-69
2023/05/14 16:20:04;;;;;;;2.22;1.35;;;;;;;20.23;51.88;99847.41;10192581;28;22490;-70
2023/05/14 16:25:05;;;;;;;1.42;1.25;;;;;;;20.27;52.12;99843.28;10189602;28;20474;-69
2023/05/14 16:30:07;;;;;;;1.80;1.40;;;;;;;20.22;51.65;99839.50;10194739;28;20066;-70
2023/05/14 16:35:09;;;;;;;2.33;1.55;;;;;;;20.29;52.08;99835.81;10190598;28;20150;-68
2023/05/14 16:40:11;;;;;;;2.72;1.15;;;;;;;20.29;51.69;99838.50;10190833;28;20092;-69
2023/05/14 16:45:13;;;;;;;1.55;1.20;;;;;;;20.20;51.13;99809.97;10191803;28;20340;-70
2023/05/14 16:50:14;;;;;;;1.60;1.10;;;;;;;20.31;50.81;99833.75;10187305;28;20115;-70
2023/05/14 16:55:18;;;;;;;1.20;1.05;;;;;;;20.22;51.25;99831.41;10213751;28;20098;-69
2023/05/14 17:00:19;;;;;;;1.48;1.38;;;;;;;20.20;51.03;99833.47;10187607;28;20062;-68
2023/05/14 17:05:21;;;;;;;1.70;1.35;;;;;;;20.12;51.50;99845.28;10185907;28;20129;-67
2023/05/14 17:10:24;;;;;;;3.60;1.50;;;;;;;20.13;52.07;99850.47;10184917;28;20055;-69
2023/05/14 17:15:25;;;;;;;2.22;1.95;;;;;;;19.96;55.32;99849.91;10214800;28;20047;-67
2023/05/14 17:20:27;;;;;;;2.97;1.85;;;;;;;20.07;55.16;99845.00;10190323;28;20058;-70
2023/05/14 17:25:29;;;;;;;2.38;1.73;;;;;;;20.02;55.50;99842.88;10184106;28;20059;-69
2023/05/14 17:30:30;;;;;;;1.52;1.23;;;;;;;19.68;53.20;99833.66;10184746;28;20077;-68
2023/05/14 17:35:34;;;;;;;1.85;1.10;;;;;;;19.59;51.71;99840.19;10187219;28;20349;-68
2023/05/14 17:40:36;;;;;;;1.13;0.93;;;;;;;19.58;50.41;99831.25;10185220;28;20065;-69
2023/05/14 17:45:37;;;;;;;2.03;1.00;;;;;;;19.58;49.74;99839.34;10187679;28;20303;-68
2023/05/14 17:50:54;;;;;;;4.63;1.17;;;;;;;19.50;50.29;99844.03;10186537;28;20044;-69
2023/05/14 17:55:55;;;;;;;1.83;0.80;;;;;;;19.40;51.28;99853.28;10201342;28;20714;-67
2023/05/14 18:00:56;;;;;;;1.00;0.90;;;;;;;19.36;51.60;99857.38;10188330;28;20062;-69
2023/05/14 18:05:58;;;;;;;2.67;1.20;;;;;;;19.30;51.73;99852.75;10186310;28;20066;-69
2023/05/14 18:10:59;;;;;;;1.80;1.00;;;;;;;19.19;52.49;99866.75;10187637;28;20074;-68
2023/05/14 18:16:01;;;;;;;1.17;1.08;;;;;;;18.78;52.07;99849.19;10183441;28;20067;-69
2023/05/14 18:21:02;;;;;;;1.50;0.90;;;;;;;18.75;52.32;99859.50;10186531;28;20146;-70
2023/05/14 18:26:04;;;;;;;1.77;1.10;;;;;;;18.27;53.59;99849.91;10182977;28;20059;-68
2023/05/14 18:31:05;;;;;;;2.03;1.70;;;;;;;18.36;53.49;99873.06;10189060;28;20544;-70
2023/05/14 18:36:07;;;;;;;1.63;1.15;;;;;;;18.06;55.28;99872.16;10200151;28;20058;-69
2023/05/14 18:41:08;;;;;;;1.60;1.50;;;;;;;17.90;55.04;99870.44;10186574;28;20055;-68
2023/05/14 18:46:11;;;;;;;1.55;1.25;;;;;;;17.91;55.64;99868.56;10203000;28;20531;-68
2023/05/14 18:51:12;;;;;;;3.33;1.45;;;;;;;17.97;56.08;99871.41;10213920;28;20055;-69
2023/05/14 18:56:14;;;;;;;1.67;1.35;;;;;;;17.93;55.99;99896.19;10182384;28;20146;-69
2023/05/14 19:01:15;;;;;;;1.42;1.33;;;;;;;17.83;56.15;99882.91;10184134;28;20091;-69
2023/05/14 19:06:17;;;;;;;1.23;1.10;;;;;;;17.87;56.35;99894.16;10198661;28;20140;-68
2023/05/14 19:11:18;;;;;;;2.45;1.27;;;;;;;17.89;55.82;99903.75;10215003;28;20055;-69
2023/05/14 19:16:20;;;;;;;1.90;1.50;;;;;;;17.86;55.91;99909.47;10188647;28;20502;-70
2023/05/14 19:21:22;;;;;;;1.35;1.25;;;;;;;17.84;56.92;99904.25;10192615;28;20051;-69
2023/05/14 19:26:23;;;;;;;2.95;1.60;;;;;;;17.63;55.04;99915.69;10194124;28;20162;-69
2023/05/14 19:31:25;;;;;;;1.50;1.40;;;;;;;17.70;56.25;99923.03;10193271;28;20142;-69
2023/05/14 19:36:27;;;;;;;1.65;1.30;;;;;;;17.71;55.76;99919.34;10195299;28;20169;-68
2023/05/14 19:41:29;;;;;;;1.67;1.58;;;;;;;17.44;56.30;99916.13;10196834;28;20524;-69
2023/05/14 19:46:30;;;;;;;1.65;1.55;;;;;;;17.37;56.59;99904.38;10194643;28;20106;-69
2023/05/14 19:51:32;;;;;;;2.65;1.50;;;;;;;17.36;56.39;99897.34;10198745;28;20150;-69
2023/05/14 19:56:33;;;;;;;2.85;1.73;;;;;;;17.24;55.88;99905.81;10197634;28;20247;-69
2023/05/14 20:01:34;;;;;;;2.13;1.60;;;;;;;17.27;56.81;99918.06;10199494;28;20073;-69
2023/05/14 20:06:37;;;;;;;2.63;1.65;;;;;;;17.36;56.68;99921.56;10196544;28;20142;-69
2023/05/14 20:11:38;;;;;;;22.95;21.05;;;;;;;17.47;56.92;99921.16;10223690;28;20058;-67
2023/05/14 20:16:40;;;;;;;3.00;2.35;;;;;;;17.42;56.20;99910.09;10209999;28;20241;-70
2023/05/14 20:21:42;;;;;;;1.70;1.58;;;;;;;17.34;56.48;99904.75;10194443;28;20051;-70
2023/05/14 20:26:43;;;;;;;2.47;1.85;;;;;;;17.36;56.58;99913.50;10196816;28;20104;-69
2023/05/14 20:31:44;;;;;;;3.15;1.70;;;;;;;17.34;57.14;99907.44;10194166;28;20051;-69
2023/05/14 20:36:46;;;;;;;2.67;1.80;;;;;;;17.30;57.31;99904.28;10187255;28;20079;-69
2023/05/14 20:41:47;;;;;;;1.98;1.70;;;;;;;17.10;57.42;99887.75;10219826;28;21576;-73
2023/05/14 20:46:49;;;;;;;1.98;1.75;;;;;;;17.33;57.56;99917.38;10194845;28;20055;-70
2023/05/14 20:51:50;;;;;;;1.80;1.55;;;;;;;17.25;57.49;99906.63;10196528;28;20106;-68
2023/05/14 20:56:52;;;;;;;1.80;1.70;;;;;;;17.18;58.20;99898.44;10187824;28;20047;-68
2023/05/14 21:01:53;;;;;;;1.60;1.50;;;;;;;17.06;57.50;99889.09;10204818;28;20290;-69
2023/05/14 21:06:55;;;;;;;2.00;1.45;;;;;;;17.18;57.73;99903.81;10193297;28;20521;-70
2023/05/14 21:11:56;;;;;;;2.17;1.98;;;;;;;16.98;57.30;99883.72;10218092;28;20055;-71
2023/05/14 21:16:58;;;;;;;2.72;1.90;;;;;;;17.02;57.60;99880.50;10192175;28;20062;-69
2023/05/14 21:21:59;;;;;;;2.25;1.60;;;;;;;17.10;57.20;99887.75;10188041;28;20170;-69
2023/05/14 21:27:01;;;;;;;1.88;1.65;;;;;;;17.09;57.02;99896.81;10190224;28;20059;-69
2023/05/14 21:32:02;;;;;;;1.83;1.67;;;;;;;16.98;57.43;99883.72;10192228;28;20090;-69
2023/05/14 21:37:04;;;;;;;1.70;1.60;;;;;;;16.91;58.09;99887.13;10192887;28;20493;-70
2023/05/14 21:42:06;;;;;;;1.98;1.88;;;;;;;16.76;58.50;99876.22;10194165;28;20569;-69
2023/05/14 21:47:07;;;;;;;2.05;1.80;;;;;;;16.71;58.10;99869.69;10189124;28;20057;-70
2023/05/14 21:52:09;;;;;;;1.65;1.55;;;;;;;16.84;57.58;99888.78;10191801;28;20362;-69
2023/05/14 21:57:11;;;;;;;1.80;1.70;;;;;;;16.78;58.21;99871.53;10184270;28;20054;-69
2023/05/14 22:02:12;;;;;;;2.08;1.83;;;;;;;16.81;57.99;99873.00;10203238;28;20059;-71
2023/05/14 22:07:14;;;;;;;1.88;1.70;;;;;;;16.66;58.27;99847.88;10190328;28;20051;-69
2023/05/14 22:12:15;;;;;;;1.95;1.85;;;;;;;16.74;58.39;99866.66;10203194;28;20169;-70
2023/05/14 22:17:16;;;;;;;1.80;1.70;;;;;;;16.55;58.96;99863.34;10205221;28;20063;-68
2023/05/14 22:22:18;;;;;;;1.90;1.80;;;;;;;16.44;58.79;99842.25;10190248;28;20055;-69
2023/05/14 22:27:19;;;;;;;2.30;1.90;;;;;;;16.52;59.37;99846.75;10191711;28;20066;-69
2023/05/14 22:32:21;;;;;;;1.60;1.50;;;;;;;16.59;58.87;99863.84;10200860;28;20055;-68
2023/05/14 22:37:22;;;;;;;1.98;1.50;;;;;;;16.56;58.49;99856.97;10201150;28;20134;-69
2023/05/14 22:42:23;;;;;;;2.40;1.95;;;;;;;16.47;58.38;99858.00;10189383;28;20561;-69
2023/05/14 22:47:25;;;;;;;2.10;1.70;;;;;;;16.47;59.56;99858.00;10189274;28;20162;-72
2023/05/14 22:52:26;;;;;;;2.28;1.85;;;;;;;16.31;59.61;99847.28;10183944;28;20051;-69
2023/05/14 22:57:28;;;;;;;2.90;1.60;;;;;;;16.32;60.54;99852.50;10194167;28;20047;-69
2023/05/14 23:02:29;;;;;;;2.42;2.22;;;;;;;16.17;61.50;99828.19;10181830;28;20055;-69
2023/05/14 23:07:31;;;;;;;3.60;2.20;;;;;;;16.17;61.08;99827.31;10183914;28;21887;-69
2023/05/14 23:12:32;;;;;;;2.50;2.30;;;;;;;16.17;61.62;99846.97;10184492;28;20062;-69
2023/05/14 23:17:34;;;;;;;2.72;1.95;;;;;;;16.15;61.50;99834.72;10183992;28;20055;-70